sensor_id;sensor_type;location;lat;lon;timestamp;P1;durP1;ratioP1;P2;durP2;ratioP2
21657;SDS011;10990;48.174;9.782;2023-09-18T00:00:51;5.18;;;3.25;;
21657;SDS011;10990;48.174;9.782;2023-09-18T00:03:17;5.35;;;3.60;;
21657;SDS011;10990;48.174;9.782;2023-09-18T00:05:44;4.70;;;3.30;;
21657;SDS011;10990;48.174;9.782;2023-09-18T00:08:13;5.05;;;3.20;;
21657;SDS011;10990;48.174;9.782;2023-09-18T00:10:39;4.60;;;3.40;;
21657;SDS011;10990;48.174;9.782;2023-09-18T00:13:08;4.45;;;2.92;;
21657;SDS011;10990;48.174;9.782;2023-09-18T00:15:34;3.88;;;2.78;;
21657;SDS011;10990;48.174;9.782;2023-09-18T00:18:02;7.20;;;3.53;;
21657;SDS011;10990;48.174;9.782;2023-09-18T00:20:30;4.82;;;3.25;;
21657;SDS011;10990;48.174;9.782;2023-09-18T00:22:56;4.35;;;3.60;;
21657;SDS011;10990;48.174;9.782;2023-09-18T00:25:23;4.35;;;3.30;;
21657;SDS011;10990;48.174;9.782;2023-09-18T00:27:50;4.32;;;3.38;;
21657;SDS011;10990;48.174;9.782;2023-09-18T00:30:19;4.60;;;3.22;;
21657;SDS011;10990;48.174;9.782;2023-09-18T00:32:46;4.80;;;3.20;;
21657;SDS011;10990;48.174;9.782;2023-09-18T00:35:15;4.47;;;3.15;;
21657;SDS011;10990;48.174;9.782;2023-09-18T00:37:42;4.85;;;3.38;;
21657;SDS011;10990;48.174;9.782;2023-09-18T00:40:09;5.22;;;3.85;;
21657;SDS011;10990;48.174;9.782;2023-09-18T00:42:37;4.07;;;3.42;;
21657;SDS011;10990;48.174;9.782;2023-09-18T00:45:04;3.55;;;3.20;;
21657;SDS011;10990;48.174;9.782;2023-09-18T00:47:33;6.32;;;3.53;;
21657;SDS011;10990;48.174;9.782;2023-09-18T00:50:02;5.00;;;3.70;;
21657;SDS011;10990;48.174;9.782;2023-09-18T00:52:30;4.63;;;3.55;;
21657;SDS011;10990;48.174;9.782;2023-09-18T00:54:59;4.75;;;3.63;;
21657;SDS011;10990;48.174;9.782;2023-09-18T00:57:27;6.40;;;3.60;;
21657;SDS011;10990;48.174;9.782;2023-09-18T00:59:54;5.03;;;3.22;;
21657;SDS011;10990;48.174;9.782;2023-09-18T01:02:21;5.13;;;3.53;;
21657;SDS011;10990;48.174;9.782;2023-09-18T01:04:50;4.68;;;3.22;;
21657;SDS011;10990;48.174;9.782;2023-09-18T01:07:17;4.38;;;3.40;;
21657;SDS011;10990;48.174;9.782;2023-09-18T01:09:44;5.47;;;3.33;;
21657;SDS011;10990;48.174;9.782;2023-09-18T01:12:14;4.40;;;3.33;;
21657;SDS011;10990;48.174;9.782;2023-09-18T01:14:48;4.43;;;3.60;;
21657;SDS011;10990;48.174;9.782;2023-09-18T01:17:22;4.90;;;4.15;;
21657;SDS011;10990;48.174;9.782;2023-09-18T01:19:52;8.15;;;3.97;;
21657;SDS011;10990;48.174;9.782;2023-09-18T01:22:19;6.85;;;4.63;;
21657;SDS011;10990;48.174;9.782;2023-09-18T01:24:48;6.68;;;5.07;;
21657;SDS011;10990;48.174;9.782;2023-09-18T01:27:15;8.57;;;4.80;;
21657;SDS011;10990;48.174;9.782;2023-09-18T01:29:43;6.50;;;4.40;;
21657;SDS011;10990;48.174;9.782;2023-09-18T01:32:10;6.75;;;5.00;;
21657;SDS011;10990;48.174;9.782;2023-09-18T01:34:38;6.50;;;4.65;;
21657;SDS011;10990;48.174;9.782;2023-09-18T01:37:09;5.00;;;4.20;;
21657;SDS011;10990;48.174;9.782;2023-09-18T01:39:38;5.95;;;4.35;;
21657;SDS011;10990;48.174;9.782;2023-09-18T01:42:07;6.30;;;4.40;;
21657;SDS011;10990;48.174;9.782;2023-09-18T01:44:36;5.03;;;3.92;;
21657;SDS011;10990;48.174;9.782;2023-09-18T01:47:04;5.22;;;3.95;;
21657;SDS011;10990;48.174;9.782;2023-09-18T01:49:33;8.30;;;4.35;;
21657;SDS011;10990;48.174;9.782;2023-09-18T01:52:02;5.82;;;3.95;;
21657;SDS011;10990;48.174;9.782;2023-09-18T01:54:30;4.82;;;4.10;;
21657;SDS011;10990;48.174;9.782;2023-09-18T01:56:57;7.95;;;4.78;;
21657;SDS011;10990;48.174;9.782;2023-09-18T01:59:25;4.82;;;3.80;;
21657;SDS011;10990;48.174;9.782;2023-09-18T02:01:53;6.55;;;4.68;;
21657;SDS011;10990;48.174;9.782;2023-09-18T02:04:19;5.55;;;4.00;;
21657;SDS011;10990;48.174;9.782;2023-09-18T02:06:48;4.65;;;3.78;;
21657;SDS011;10990;48.174;9.782;2023-09-18T02:09:15;5.57;;;4.38;;
21657;SDS011;10990;48.174;9.782;2023-09-18T02:11:43;5.80;;;4.57;;
21657;SDS011;10990;48.174;9.782;2023-09-18T02:14:12;8.00;;;4.68;;
21657;SDS011;10990;48.174;9.782;2023-09-18T02:16:41;7.50;;;4.30;;
21657;SDS011;10990;48.174;9.782;2023-09-18T02:19:11;4.72;;;3.97;;
21657;SDS011;10990;48.174;9.782;2023-09-18T02:21:38;6.45;;;3.97;;
21657;SDS011;10990;48.174;9.782;2023-09-18T02:24:06;6.35;;;4.38;;
21657;SDS011;10990;48.174;9.782;2023-09-18T02:26:34;5.55;;;4.43;;
21657;SDS011;10990;48.174;9.782;2023-09-18T02:29:02;5.47;;;4.15;;
21657;SDS011;10990;48.174;9.782;2023-09-18T02:31:32;6.47;;;4.32;;
21657;SDS011;10990;48.174;9.782;2023-09-18T02:34:01;6.18;;;4.25;;
21657;SDS011;10990;48.174;9.782;2023-09-18T02:36:27;7.88;;;4.63;;
21657;SDS011;10990;48.174;9.782;2023-09-18T02:38:54;5.18;;;4.30;;
21657;SDS011;10990;48.174;9.782;2023-09-18T02:41:21;7.78;;;4.50;;
21657;SDS011;10990;48.174;9.782;2023-09-18T02:43:48;7.90;;;5.05;;
21657;SDS011;10990;48.174;9.782;2023-09-18T02:46:15;5.18;;;4.50;;
21657;SDS011;10990;48.174;9.782;2023-09-18T02:48:42;7.43;;;4.78;;
21657;SDS011;10990;48.174;9.782;2023-09-18T02:51:10;5.32;;;4.50;;
21657;SDS011;10990;48.174;9.782;2023-09-18T02:53:37;7.70;;;4.57;;
21657;SDS011;10990;48.174;9.782;2023-09-18T02:56:04;6.57;;;4.10;;
21657;SDS011;10990;48.174;9.782;2023-09-18T02:58:31;7.07;;;4.07;;
21657;SDS011;10990;48.174;9.782;2023-09-18T03:00:58;5.47;;;4.40;;
21657;SDS011;10990;48.174;9.782;2023-09-18T03:03:26;5.93;;;4.20;;
21657;SDS011;10990;48.174;9.782;2023-09-18T03:05:53;6.10;;;4.25;;
21657;SDS011;10990;48.174;9.782;2023-09-18T03:08:28;7.20;;;4.80;;
21657;SDS011;10990;48.174;9.782;2023-09-18T03:10:56;7.55;;;4.90;;
21657;SDS011;10990;48.174;9.782;2023-09-18T03:13:23;6.80;;;4.75;;
21657;SDS011;10990;48.174;9.782;2023-09-18T03:15:52;7.25;;;4.82;;
21657;SDS011;10990;48.174;9.782;2023-09-18T03:18:19;6.10;;;4.78;;
21657;SDS011;10990;48.174;9.782;2023-09-18T03:20:46;5.72;;;4.80;;
21657;SDS011;10990;48.174;9.782;2023-09-18T03:23:13;6.25;;;4.70;;
21657;SDS011;10990;48.174;9.782;2023-09-18T03:25:42;5.95;;;4.80;;
21657;SDS011;10990;48.174;9.782;2023-09-18T03:28:09;5.72;;;4.45;;
21657;SDS011;10990;48.174;9.782;2023-09-18T03:30:36;6.60;;;4.50;;
21657;SDS011;10990;48.174;9.782;2023-09-18T03:33:03;6.30;;;4.57;;
21657;SDS011;10990;48.174;9.782;2023-09-18T03:35:31;6.97;;;4.60;;
21657;SDS011;10990;48.174;9.782;2023-09-18T03:37:58;6.10;;;4.80;;
21657;SDS011;10990;48.174;9.782;2023-09-18T03:40:25;6.20;;;4.07;;
21657;SDS011;10990;48.174;9.782;2023-09-18T03:42:53;5.22;;;4.10;;
21657;SDS011;10990;48.174;9.782;2023-09-18T03:45:20;5.13;;;4.05;;
21657;SDS011;10990;48.174;9.782;2023-09-18T03:47:48;6.95;;;4.38;;
21657;SDS011;10990;48.174;9.782;2023-09-18T03:50:16;7.72;;;4.90;;
21657;SDS011;10990;48.174;9.782;2023-09-18T03:52:43;5.95;;;4.82;;
21657;SDS011;10990;48.174;9.782;2023-09-18T03:55:10;6.10;;;4.80;;
21657;SDS011;10990;48.174;9.782;2023-09-18T03:57:37;8.30;;;5.15;;
21657;SDS011;10990;48.174;9.782;2023-09-18T04:00:08;6.03;;;4.65;;
21657;SDS011;10990;48.174;9.782;2023-09-18T04:02:40;6.05;;;4.55;;
21657;SDS011;10990;48.174;9.782;2023-09-18T04:05:06;7.72;;;5.00;;
21657;SDS011;10990;48.174;9.782;2023-09-18T04:07:34;6.45;;;4.30;;
21657;SDS011;10990;48.174;9.782;2023-09-18T04:10:01;8.13;;;6.10;;
21657;SDS011;10990;48.174;9.782;2023-09-18T04:12:28;8.13;;;5.32;;
21657;SDS011;10990;48.174;9.782;2023-09-18T04:14:55;5.68;;;4.93;;
21657;SDS011;10990;48.174;9.782;2023-09-18T04:17:24;6.90;;;5.13;;
21657;SDS011;10990;48.174;9.782;2023-09-18T04:19:51;12.07;;;7.88;;
21657;SDS011;10990;48.174;9.782;2023-09-18T04:22:20;9.73;;;6.65;;
21657;SDS011;10990;48.174;9.782;2023-09-18T04:24:47;7.57;;;5.75;;
21657;SDS011;10990;48.174;9.782;2023-09-18T04:27:14;9.13;;;6.22;;
21657;SDS011;10990;48.174;9.782;2023-09-18T04:29:40;8.85;;;6.45;;
21657;SDS011;10990;48.174;9.782;2023-09-18T04:32:07;8.60;;;5.85;;
21657;SDS011;10990;48.174;9.782;2023-09-18T04:34:35;9.65;;;6.40;;
21657;SDS011;10990;48.174;9.782;2023-09-18T04:37:02;11.40;;;7.28;;
21657;SDS011;10990;48.174;9.782;2023-09-18T04:39:29;11.63;;;6.72;;
21657;SDS011;10990;48.174;9.782;2023-09-18T04:42:00;10.05;;;6.90;;
21657;SDS011;10990;48.174;9.782;2023-09-18T04:44:29;9.15;;;6.35;;
21657;SDS011;10990;48.174;9.782;2023-09-18T04:46:56;7.75;;;6.07;;
21657;SDS011;10990;48.174;9.782;2023-09-18T04:49:24;8.20;;;6.10;;
21657;SDS011;10990;48.174;9.782;2023-09-18T04:51:54;8.80;;;6.00;;
21657;SDS011;10990;48.174;9.782;2023-09-18T04:54:22;7.68;;;5.60;;
21657;SDS011;10990;48.174;9.782;2023-09-18T04:56:49;8.15;;;6.30;;
21657;SDS011;10990;48.174;9.782;2023-09-18T04:59:16;8.38;;;5.78;;
21657;SDS011;10990;48.174;9.782;2023-09-18T05:01:43;9.82;;;6.50;;
21657;SDS011;10990;48.174;9.782;2023-09-18T05:04:10;7.88;;;6.13;;
21657;SDS011;10990;48.174;9.782;2023-09-18T05:06:37;11.00;;;6.75;;
21657;SDS011;10990;48.174;9.782;2023-09-18T05:09:06;9.43;;;6.43;;
21657;SDS011;10990;48.174;9.782;2023-09-18T05:11:33;9.07;;;6.57;;
21657;SDS011;10990;48.174;9.782;2023-09-18T05:14:01;8.77;;;6.03;;
21657;SDS011;10990;48.174;9.782;2023-09-18T05:16:28;9.98;;;6.40;;
21657;SDS011;10990;48.174;9.782;2023-09-18T05:18:54;8.63;;;5.63;;
21657;SDS011;10990;48.174;9.782;2023-09-18T05:21:21;9.50;;;6.60;;
21657;SDS011;10990;48.174;9.782;2023-09-18T05:23:50;7.47;;;5.70;;
21657;SDS011;10990;48.174;9.782;2023-09-18T05:26:20;9.30;;;6.18;;
21657;SDS011;10990;48.174;9.782;2023-09-18T05:28:49;11.07;;;6.20;;
21657;SDS011;10990;48.174;9.782;2023-09-18T05:31:17;11.27;;;6.32;;
21657;SDS011;10990;48.174;9.782;2023-09-18T05:33:44;17.15;;;6.72;;
21657;SDS011;10990;48.174;9.782;2023-09-18T05:36:12;14.00;;;7.68;;
21657;SDS011;10990;48.174;9.782;2023-09-18T05:38:39;15.80;;;7.93;;
21657;SDS011;10990;48.174;9.782;2023-09-18T05:41:06;13.20;;;7.68;;
21657;SDS011;10990;48.174;9.782;2023-09-18T05:43:34;13.35;;;6.85;;
21657;SDS011;10990;48.174;9.782;2023-09-18T05:46:00;15.93;;;7.18;;
21657;SDS011;10990;48.174;9.782;2023-09-18T05:48:27;16.52;;;8.18;;
21657;SDS011;10990;48.174;9.782;2023-09-18T05:50:54;15.55;;;8.35;;
21657;SDS011;10990;48.174;9.782;2023-09-18T05:53:21;11.73;;;7.30;;
21657;SDS011;10990;48.174;9.782;2023-09-18T05:55:48;8.90;;;6.32;;
21657;SDS011;10990;48.174;9.782;2023-09-18T05:58:14;13.77;;;6.47;;
21657;SDS011;10990;48.174;9.782;2023-09-18T06:00:44;13.63;;;7.53;;
21657;SDS011;10990;48.174;9.782;2023-09-18T06:03:11;12.25;;;7.45;;
21657;SDS011;10990;48.174;9.782;2023-09-18T06:05:38;11.10;;;7.13;;
21657;SDS011;10990;48.174;9.782;2023-09-18T06:08:05;8.35;;;6.40;;
21657;SDS011;10990;48.174;9.782;2023-09-18T06:10:31;10.38;;;7.35;;
21657;SDS011;10990;48.174;9.782;2023-09-18T06:12:58;9.90;;;6.53;;
21657;SDS011;10990;48.174;9.782;2023-09-18T06:15:29;11.82;;;6.95;;
21657;SDS011;10990;48.174;9.782;2023-09-18T06:17:57;11.77;;;6.72;;
21657;SDS011;10990;48.174;9.782;2023-09-18T06:20:24;9.20;;;6.07;;
21657;SDS011;10990;48.174;9.782;2023-09-18T06:22:51;11.63;;;6.63;;
21657;SDS011;10990;48.174;9.782;2023-09-18T06:25:17;13.95;;;6.53;;
21657;SDS011;10990;48.174;9.782;2023-09-18T06:27:45;10.88;;;5.90;;
21657;SDS011;10990;48.174;9.782;2023-09-18T06:30:12;10.48;;;5.82;;
21657;SDS011;10990;48.174;9.782;2023-09-18T06:32:39;11.82;;;5.88;;
21657;SDS011;10990;48.174;9.782;2023-09-18T06:35:08;13.60;;;6.20;;
21657;SDS011;10990;48.174;9.782;2023-09-18T06:37:34;9.32;;;5.18;;
21657;SDS011;10990;48.174;9.782;2023-09-18T06:40:01;8.18;;;5.20;;
21657;SDS011;10990;48.174;9.782;2023-09-18T06:42:31;12.52;;;5.60;;
21657;SDS011;10990;48.174;9.782;2023-09-18T06:44:58;8.80;;;5.28;;
21657;SDS011;10990;48.174;9.782;2023-09-18T06:47:26;10.90;;;5.10;;
21657;SDS011;10990;48.174;9.782;2023-09-18T06:49:53;9.15;;;5.72;;
21657;SDS011;10990;48.174;9.782;2023-09-18T06:52:21;10.88;;;4.90;;
21657;SDS011;10990;48.174;9.782;2023-09-18T06:54:48;9.10;;;5.38;;
21657;SDS011;10990;48.174;9.782;2023-09-18T06:57:14;8.68;;;4.68;;
21657;SDS011;10990;48.174;9.782;2023-09-18T06:59:41;11.43;;;4.80;;
21657;SDS011;10990;48.174;9.782;2023-09-18T07:02:08;10.07;;;4.55;;
21657;SDS011;10990;48.174;9.782;2023-09-18T07:04:35;8.60;;;4.80;;
21657;SDS011;10990;48.174;9.782;2023-09-18T07:07:02;13.57;;;5.30;;
21657;SDS011;10990;48.174;9.782;2023-09-18T07:09:30;9.63;;;5.00;;
21657;SDS011;10990;48.174;9.782;2023-09-18T07:11:57;11.30;;;4.32;;
21657;SDS011;10990;48.174;9.782;2023-09-18T07:14:24;9.77;;;4.40;;
21657;SDS011;10990;48.174;9.782;2023-09-18T07:16:51;9.27;;;4.80;;
21657;SDS011;10990;48.174;9.782;2023-09-18T07:19:17;8.05;;;4.20;;
21657;SDS011;10990;48.174;9.782;2023-09-18T07:21:44;8.48;;;4.13;;
21657;SDS011;10990;48.174;9.782;2023-09-18T07:24:11;10.32;;;4.07;;
21657;SDS011;10990;48.174;9.782;2023-09-18T07:26:46;8.93;;;4.53;;
21657;SDS011;10990;48.174;9.782;2023-09-18T07:29:13;6.28;;;4.03;;
21657;SDS011;10990;48.174;9.782;2023-09-18T07:31:41;10.30;;;4.18;;
21657;SDS011;10990;48.174;9.782;2023-09-18T07:34:08;9.50;;;4.15;;
21657;SDS011;10990;48.174;9.782;2023-09-18T07:36:35;9.25;;;4.43;;
21657;SDS011;10990;48.174;9.782;2023-09-18T07:39:02;9.10;;;3.85;;
21657;SDS011;10990;48.174;9.782;2023-09-18T07:41:29;10.35;;;3.92;;
21657;SDS011;10990;48.174;9.782;2023-09-18T07:43:57;9.38;;;3.90;;
21657;SDS011;10990;48.174;9.782;2023-09-18T07:46:25;9.63;;;3.53;;
21657;SDS011;10990;48.174;9.782;2023-09-18T07:48:52;9.52;;;3.67;;
21657;SDS011;10990;48.174;9.782;2023-09-18T07:51:19;7.18;;;3.40;;
21657;SDS011;10990;48.174;9.782;2023-09-18T07:53:46;12.75;;;3.47;;
21657;SDS011;10990;48.174;9.782;2023-09-18T07:56:13;8.40;;;3.28;;
21657;SDS011;10990;48.174;9.782;2023-09-18T07:58:40;8.25;;;3.20;;
21657;SDS011;10990;48.174;9.782;2023-09-18T08:01:08;7.28;;;3.83;;
21657;SDS011;10990;48.174;9.782;2023-09-18T08:03:35;9.40;;;4.47;;
21657;SDS011;10990;48.174;9.782;2023-09-18T08:06:02;7.20;;;3.90;;
21657;SDS011;10990;48.174;9.782;2023-09-18T08:08:30;7.90;;;3.22;;
21657;SDS011;10990;48.174;9.782;2023-09-18T08:11:00;13.65;;;3.25;;
21657;SDS011;10990;48.174;9.782;2023-09-18T08:13:34;9.93;;;3.28;;
21657;SDS011;10990;48.174;9.782;2023-09-18T08:16:02;11.25;;;3.40;;
21657;SDS011;10990;48.174;9.782;2023-09-18T08:18:30;6.05;;;2.88;;
21657;SDS011;10990;48.174;9.782;2023-09-18T08:20:57;8.95;;;3.03;;
21657;SDS011;10990;48.174;9.782;2023-09-18T08:23:25;8.27;;;2.88;;
21657;SDS011;10990;48.174;9.782;2023-09-18T08:25:52;10.32;;;3.10;;
21657;SDS011;10990;48.174;9.782;2023-09-18T08:28:21;8.88;;;2.90;;
21657;SDS011;10990;48.174;9.782;2023-09-18T08:30:48;7.00;;;2.72;;
21657;SDS011;10990;48.174;9.782;2023-09-18T08:33:15;14.23;;;3.20;;
21657;SDS011;10990;48.174;9.782;2023-09-18T08:35:43;8.60;;;3.17;;
21657;SDS011;10990;48.174;9.782;2023-09-18T08:38:12;13.77;;;2.95;;
21657;SDS011;10990;48.174;9.782;2023-09-18T08:40:40;9.80;;;2.95;;
21657;SDS011;10990;48.174;9.782;2023-09-18T08:43:07;7.70;;;2.88;;
21657;SDS011;10990;48.174;9.782;2023-09-18T08:45:35;8.20;;;2.92;;
21657;SDS011;10990;48.174;9.782;2023-09-18T08:48:07;8.52;;;2.90;;
21657;SDS011;10990;48.174;9.782;2023-09-18T08:50:34;6.78;;;2.80;;
21657;SDS011;10990;48.174;9.782;2023-09-18T08:53:03;6.97;;;2.70;;
21657;SDS011;10990;48.174;9.782;2023-09-18T08:55:30;6.25;;;2.60;;
21657;SDS011;10990;48.174;9.782;2023-09-18T08:57:58;7.53;;;2.35;;
21657;SDS011;10990;48.174;9.782;2023-09-18T09:00:25;7.40;;;2.42;;
21657;SDS011;10990;48.174;9.782;2023-09-18T09:02:52;10.35;;;2.95;;
21657;SDS011;10990;48.174;9.782;2023-09-18T09:05:19;6.63;;;2.28;;
21657;SDS011;10990;48.174;9.782;2023-09-18T09:07:48;9.27;;;2.25;;
21657;SDS011;10990;48.174;9.782;2023-09-18T09:10:17;9.18;;;2.58;;
21657;SDS011;10990;48.174;9.782;2023-09-18T09:12:47;6.75;;;2.05;;
21657;SDS011;10990;48.174;9.782;2023-09-18T09:15:15;4.97;;;2.10;;
21657;SDS011;10990;48.174;9.782;2023-09-18T09:17:43;6.40;;;2.17;;
21657;SDS011;10990;48.174;9.782;2023-09-18T09:20:11;8.38;;;2.47;;
21657;SDS011;10990;48.174;9.782;2023-09-18T09:22:39;9.27;;;2.30;;
21657;SDS011;10990;48.174;9.782;2023-09-18T09:27:52;7.57;;;2.22;;
21657;SDS011;10990;48.174;9.782;2023-09-18T09:30:19;6.10;;;1.98;;
21657;SDS011;10990;48.174;9.782;2023-09-18T09:32:49;6.72;;;2.05;;
21657;SDS011;10990;48.174;9.782;2023-09-18T09:35:23;8.20;;;1.80;;
21657;SDS011;10990;48.174;9.782;2023-09-18T09:37:52;5.75;;;1.90;;
21657;SDS011;10990;48.174;9.782;2023-09-18T09:40:21;5.47;;;2.08;;
21657;SDS011;10990;48.174;9.782;2023-09-18T09:42:50;4.72;;;1.60;;
21657;SDS011;10990;48.174;9.782;2023-09-18T09:45:19;8.65;;;1.80;;
21657;SDS011;10990;48.174;9.782;2023-09-18T09:47:46;4.53;;;1.90;;
21657;SDS011;10990;48.174;9.782;2023-09-18T09:50:14;7.43;;;2.03;;
21657;SDS011;10990;48.174;9.782;2023-09-18T09:52:44;5.30;;;1.80;;
21657;SDS011;10990;48.174;9.782;2023-09-18T09:55:21;10.15;;;1.95;;
21657;SDS011;10990;48.174;9.782;2023-09-18T09:57:52;5.53;;;1.85;;
21657;SDS011;10990;48.174;9.782;2023-09-18T10:00:22;7.13;;;2.22;;
21657;SDS011;10990;48.174;9.782;2023-09-18T10:02:55;7.15;;;1.90;;
21657;SDS011;10990;48.174;9.782;2023-09-18T10:05:24;4.82;;;1.90;;
21657;SDS011;10990;48.174;9.782;2023-09-18T10:07:56;5.07;;;1.70;;
21657;SDS011;10990;48.174;9.782;2023-09-18T10:10:26;5.55;;;1.70;;
21657;SDS011;10990;48.174;9.782;2023-09-18T10:12:58;5.72;;;1.75;;
21657;SDS011;10990;48.174;9.782;2023-09-18T10:15:29;3.95;;;1.70;;
21657;SDS011;10990;48.174;9.782;2023-09-18T10:18:04;7.85;;;1.85;;
21657;SDS011;10990;48.174;9.782;2023-09-18T10:20:37;5.72;;;2.00;;
21657;SDS011;10990;48.174;9.782;2023-09-18T10:23:09;5.43;;;1.60;;
21657;SDS011;10990;48.174;9.782;2023-09-18T10:25:48;3.75;;;1.40;;
21657;SDS011;10990;48.174;9.782;2023-09-18T10:28:21;4.65;;;1.30;;
21657;SDS011;10990;48.174;9.782;2023-09-18T10:30:51;4.90;;;1.23;;
21657;SDS011;10990;48.174;9.782;2023-09-18T10:33:19;1.73;;;1.00;;
21657;SDS011;10990;48.174;9.782;2023-09-18T10:35:46;3.60;;;1.10;;
21657;SDS011;10990;48.174;9.782;2023-09-18T10:38:14;5.07;;;1.17;;
21657;SDS011;10990;48.174;9.782;2023-09-18T10:40:43;1.75;;;1.10;;
21657;SDS011;10990;48.174;9.782;2023-09-18T10:43:10;2.78;;;1.05;;
21657;SDS011;10990;48.174;9.782;2023-09-18T10:45:39;2.40;;;1.00;;
21657;SDS011;10990;48.174;9.782;2023-09-18T10:48:07;2.95;;;1.20;;
21657;SDS011;10990;48.174;9.782;2023-09-18T10:50:35;2.28;;;1.20;;
21657;SDS011;10990;48.174;9.782;2023-09-18T10:53:04;5.72;;;1.27;;
21657;SDS011;10990;48.174;9.782;2023-09-18T10:55:31;3.78;;;1.48;;
21657;SDS011;10990;48.174;9.782;2023-09-18T10:57:59;3.78;;;1.23;;
21657;SDS011;10990;48.174;9.782;2023-09-18T11:00:27;3.85;;;1.40;;
21657;SDS011;10990;48.174;9.782;2023-09-18T11:03:10;2.78;;;1.20;;
21657;SDS011;10990;48.174;9.782;2023-09-18T11:05:39;3.50;;;1.65;;
21657;SDS011;10990;48.174;9.782;2023-09-18T11:08:24;5.28;;;1.48;;
21657;SDS011;10990;48.174;9.782;2023-09-18T11:10:59;2.95;;;1.30;;
21657;SDS011;10990;48.174;9.782;2023-09-18T11:13:31;6.35;;;1.40;;
21657;SDS011;10990;48.174;9.782;2023-09-18T11:16:02;3.58;;;1.30;;
21657;SDS011;10990;48.174;9.782;2023-09-18T11:18:34;5.78;;;1.25;;
21657;SDS011;10990;48.174;9.782;2023-09-18T11:21:07;3.03;;;1.38;;
21657;SDS011;10990;48.174;9.782;2023-09-18T11:23:35;2.30;;;1.10;;
21657;SDS011;10990;48.174;9.782;2023-09-18T11:26:03;5.43;;;1.50;;
21657;SDS011;10990;48.174;9.782;2023-09-18T11:28:34;4.53;;;1.08;;
21657;SDS011;10990;48.174;9.782;2023-09-18T11:31:02;2.97;;;1.00;;
21657;SDS011;10990;48.174;9.782;2023-09-18T11:33:30;2.83;;;1.10;;
21657;SDS011;10990;48.174;9.782;2023-09-18T11:36:02;2.45;;;1.02;;
21657;SDS011;10990;48.174;9.782;2023-09-18T11:38:32;4.30;;;1.00;;
21657;SDS011;10990;48.174;9.782;2023-09-18T11:41:01;3.00;;;1.00;;
21657;SDS011;10990;48.174;9.782;2023-09-18T11:43:46;2.42;;;1.10;;
21657;SDS011;10990;48.174;9.782;2023-09-18T11:46:13;1.20;;;0.90;;
21657;SDS011;10990;48.174;9.782;2023-09-18T11:48:46;1.95;;;0.93;;
21657;SDS011;10990;48.174;9.782;2023-09-18T11:51:21;1.63;;;1.00;;
21657;SDS011;10990;48.174;9.782;2023-09-18T11:53:49;2.28;;;1.10;;
21657;SDS011;10990;48.174;9.782;2023-09-18T11:56:20;2.67;;;1.10;;
21657;SDS011;10990;48.174;9.782;2023-09-18T11:58:47;3.17;;;1.15;;
21657;SDS011;10990;48.174;9.782;2023-09-18T12:01:14;3.78;;;1.30;;
21657;SDS011;10990;48.174;9.782;2023-09-18T12:03:41;2.45;;;1.10;;
21657;SDS011;10990;48.174;9.782;2023-09-18T12:06:08;3.60;;;1.33;;
21657;SDS011;10990;48.174;9.782;2023-09-18T12:08:39;1.20;;;0.90;;
21657;SDS011;10990;48.174;9.782;2023-09-18T12:11:08;3.03;;;1.30;;
21657;SDS011;10990;48.174;9.782;2023-09-18T12:13:34;2.22;;;1.20;;
21657;SDS011;10990;48.174;9.782;2023-09-18T12:16:02;2.00;;;1.00;;
21657;SDS011;10990;48.174;9.782;2023-09-18T12:18:30;3.47;;;1.30;;
21657;SDS011;10990;48.174;9.782;2023-09-18T12:21:00;2.50;;;1.30;;
21657;SDS011;10990;48.174;9.782;2023-09-18T12:23:36;5.18;;;1.42;;
21657;SDS011;10990;48.174;9.782;2023-09-18T12:26:05;4.22;;;1.40;;
21657;SDS011;10990;48.174;9.782;2023-09-18T12:28:33;3.25;;;1.20;;
21657;SDS011;10990;48.174;9.782;2023-09-18T12:31:02;5.50;;;1.50;;
21657;SDS011;10990;48.174;9.782;2023-09-18T12:33:33;5.72;;;1.80;;
21657;SDS011;10990;48.174;9.782;2023-09-18T12:36:01;4.90;;;1.60;;
21657;SDS011;10990;48.174;9.782;2023-09-18T12:38:30;4.45;;;1.80;;
21657;SDS011;10990;48.174;9.782;2023-09-18T12:40:57;2.25;;;1.50;;
21657;SDS011;10990;48.174;9.782;2023-09-18T12:43:34;3.65;;;1.70;;
21657;SDS011;10990;48.174;9.782;2023-09-18T12:46:02;3.92;;;1.23;;
21657;SDS011;10990;48.174;9.782;2023-09-18T12:48:31;2.92;;;1.20;;
21657;SDS011;10990;48.174;9.782;2023-09-18T12:51:04;1.40;;;1.05;;
21657;SDS011;10990;48.174;9.782;2023-09-18T12:53:31;1.73;;;1.20;;
21657;SDS011;10990;48.174;9.782;2023-09-18T12:56:05;2.58;;;1.27;;
21657;SDS011;10990;48.174;9.782;2023-09-18T12:58:35;2.17;;;1.30;;
21657;SDS011;10990;48.174;9.782;2023-09-18T13:01:04;1.98;;;1.20;;
21657;SDS011;10990;48.174;9.782;2023-09-18T13:03:34;1.92;;;1.30;;
21657;SDS011;10990;48.174;9.782;2023-09-18T13:06:08;2.13;;;1.00;;
21657;SDS011;10990;48.174;9.782;2023-09-18T13:08:36;1.77;;;1.40;;
21657;SDS011;10990;48.174;9.782;2023-09-18T13:11:04;3.42;;;1.30;;
21657;SDS011;10990;48.174;9.782;2023-09-18T13:13:31;1.60;;;0.90;;
21657;SDS011;10990;48.174;9.782;2023-09-18T13:16:00;2.67;;;1.38;;
21657;SDS011;10990;48.174;9.782;2023-09-18T13:18:31;2.15;;;1.23;;
21657;SDS011;10990;48.174;9.782;2023-09-18T13:20:58;3.60;;;1.13;;
21657;SDS011;10990;48.174;9.782;2023-09-18T13:23:28;3.03;;;1.20;;
21657;SDS011;10990;48.174;9.782;2023-09-18T13:25:59;3.47;;;1.27;;
21657;SDS011;10990;48.174;9.782;2023-09-18T13:28:26;5.00;;;1.50;;
21657;SDS011;10990;48.174;9.782;2023-09-18T13:30:56;1.90;;;1.15;;
21657;SDS011;10990;48.174;9.782;2023-09-18T13:33:25;1.75;;;1.00;;
21657;SDS011;10990;48.174;9.782;2023-09-18T13:35:53;2.85;;;1.45;;
21657;SDS011;10990;48.174;9.782;2023-09-18T13:38:21;3.28;;;1.38;;
21657;SDS011;10990;48.174;9.782;2023-09-18T13:40:48;2.15;;;1.02;;
21657;SDS011;10990;48.174;9.782;2023-09-18T13:43:15;2.63;;;1.20;;
21657;SDS011;10990;48.174;9.782;2023-09-18T13:45:44;3.40;;;1.40;;
21657;SDS011;10990;48.174;9.782;2023-09-18T13:48:10;3.05;;;1.20;;
21657;SDS011;10990;48.174;9.782;2023-09-18T13:50:39;3.80;;;1.50;;
21657;SDS011;10990;48.174;9.782;2023-09-18T13:53:06;1.30;;;0.93;;
21657;SDS011;10990;48.174;9.782;2023-09-18T13:55:33;1.73;;;1.30;;
21657;SDS011;10990;48.174;9.782;2023-09-18T13:58:00;1.35;;;1.00;;
21657;SDS011;10990;48.174;9.782;2023-09-18T14:00:29;1.60;;;1.10;;
21657;SDS011;10990;48.174;9.782;2023-09-18T14:02:56;1.42;;;1.10;;
21657;SDS011;10990;48.174;9.782;2023-09-18T14:05:23;1.35;;;1.05;;
21657;SDS011;10990;48.174;9.782;2023-09-18T14:07:53;2.10;;;1.02;;
21657;SDS011;10990;48.174;9.782;2023-09-18T14:10:24;2.03;;;1.20;;
21657;SDS011;10990;48.174;9.782;2023-09-18T14:12:52;3.20;;;1.02;;
21657;SDS011;10990;48.174;9.782;2023-09-18T14:15:18;1.77;;;1.20;;
21657;SDS011;10990;48.174;9.782;2023-09-18T14:17:46;1.33;;;1.02;;
21657;SDS011;10990;48.174;9.782;2023-09-18T14:20:14;2.75;;;1.00;;
21657;SDS011;10990;48.174;9.782;2023-09-18T14:22:43;1.30;;;1.00;;
21657;SDS011;10990;48.174;9.782;2023-09-18T14:25:12;1.10;;;0.88;;
21657;SDS011;10990;48.174;9.782;2023-09-18T14:27:39;1.17;;;1.00;;
21657;SDS011;10990;48.174;9.782;2023-09-18T14:30:06;2.40;;;0.90;;
21657;SDS011;10990;48.174;9.782;2023-09-18T14:32:34;2.45;;;1.10;;
21657;SDS011;10990;48.174;9.782;2023-09-18T14:35:01;3.25;;;1.20;;
21657;SDS011;10990;48.174;9.782;2023-09-18T14:37:30;1.88;;;1.10;;
21657;SDS011;10990;48.174;9.782;2023-09-18T14:39:57;1.30;;;1.00;;
21657;SDS011;10990;48.174;9.782;2023-09-18T14:42:25;1.30;;;1.08;;
21657;SDS011;10990;48.174;9.782;2023-09-18T14:44:52;1.67;;;1.08;;
21657;SDS011;10990;48.174;9.782;2023-09-18T14:47:18;2.03;;;0.80;;
21657;SDS011;10990;48.174;9.782;2023-09-18T14:49:45;2.30;;;0.93;;
21657;SDS011;10990;48.174;9.782;2023-09-18T14:52:12;1.55;;;1.00;;
21657;SDS011;10990;48.174;9.782;2023-09-18T14:54:40;1.13;;;0.85;;